Time;durP1;ratioP1;P1;durP2;ratioP2;P2;SDS_P1;SDS_P2;PMS_P1;PMS_P2;Temp;Humidity;BMP_temperature;BMP_pressure;BME280_temperature;BME280_humidity;BME280_pressure;Samples;Min_cycle;Max_cycle;Signal;HPM_P1;HPM_P2
2023/03/03 00:01:08;;;;;;;50.53;22.13;;;;;;;;;;5051667;28;20296;-67
2023/03/03 00:03:33;;;;;;;49.23;22.30;;;;;;;;;;5057598;28;20559;-67
2023/03/03 00:05:59;;;;;;;52.17;22.17;;;;;;;;;;5056619;28;20212;-67
2023/03/03 00:08:25;;;;;;;47.40;22.43;;;;;;;;;;5066489;28;20181;-67
2023/03/03 00:10:51;;;;;;;51.13;22.67;;;;;;;;;;5063456;28;20314;-67
2023/03/03 00:13:16;;;;;;;54.80;22.40;;;;;;;;;;5053579;28;20287;-67
2023/03/03 00:15:42;;;;;;;53.17;22.57;;;;;;;;;;5054480;28;20280;-67
2023/03/03 00:18:36;;;;;;;52.90;22.63;;;;;;;;;;5055552;28;20281;-67
2023/03/03 00:21:03;;;;;;;56.57;22.03;;;;;;;;;;5055299;28;20208;-67
2023/03/03 00:23:39;;;;;;;51.37;22.93;;;;;;;;;;5056061;28;20189;-67
2023/03/03 00:26:33;;;;;;;53.47;23.13;;;;;;;;;;5055317;28;20819;-67
2023/03/03 00:29:00;;;;;;;52.90;21.80;;;;;;;;;;5056348;28;20193;-67
2023/03/03 00:31:33;;;;;;;54.63;21.43;;;;;;;;;;5068514;28;20254;-67
2023/03/03 00:34:23;;;;;;;51.97;22.23;;;;;;;;;;5061806;28;20274;-67
2023/03/03 00:36:53;;;;;;;53.77;21.13;;;;;;;;;;5057196;28;20759;-67
2023/03/03 00:39:34;;;;;;;49.93;21.40;;;;;;;;;;5059413;28;20186;-67
2023/03/03 00:42:03;;;;;;;56.13;22.00;;;;;;;;;;5057809;28;20263;-67
2023/03/03 00:44:44;;;;;;;51.40;20.90;;;;;;;;;;5065736;28;20193;-67
2023/03/03 00:47:26;;;;;;;48.83;21.70;;;;;;;;;;5066043;28;20287;-67
2023/03/03 00:50:06;;;;;;;50.60;20.67;;;;;;;;;;5056118;28;20197;-67
2023/03/03 00:52:38;;;;;;;51.50;21.47;;;;;;;;;;5055196;28;20220;-67
2023/03/03 00:55:06;;;;;;;51.40;21.30;;;;;;;;;;5053074;28;20546;-67
2023/03/03 00:57:31;;;;;;;49.87;21.67;;;;;;;;;;5052059;28;20189;-67
2023/03/03 00:59:57;;;;;;;51.27;21.17;;;;;;;;;;5066626;28;20620;-67
2023/03/03 01:02:22;;;;;;;51.10;20.73;;;;;;;;;;5054017;28;20170;-67
2023/03/03 01:04:50;;;;;;;48.30;20.20;;;;;;;;;;5065140;28;20234;-67
2023/03/03 01:07:16;;;;;;;50.60;20.97;;;;;;;;;;5052354;28;20185;-67
2023/03/03 01:09:41;;;;;;;48.93;21.03;;;;;;;;;;5052273;28;20247;-67
2023/03/03 01:12:07;;;;;;;53.30;21.17;;;;;;;;;;5059655;28;20228;-67
2023/03/03 01:14:33;;;;;;;46.60;20.50;;;;;;;;;;5062264;28;20191;-67
2023/03/03 01:16:58;;;;;;;52.57;22.13;;;;;;;;;;5052051;28;20596;-67
2023/03/03 01:19:24;;;;;;;48.13;20.63;;;;;;;;;;5050515;28;20238;-67
2023/03/03 01:21:50;;;;;;;50.80;22.03;;;;;;;;;;5063572;28;20194;-67
2023/03/03 01:24:16;;;;;;;47.37;20.33;;;;;;;;;;5060054;28;20263;-67
2023/03/03 01:26:41;;;;;;;50.73;21.40;;;;;;;;;;5069637;28;20189;-67
2023/03/03 01:29:07;;;;;;;52.53;21.47;;;;;;;;;;5040251;28;20177;-67
2023/03/03 01:31:32;;;;;;;51.13;20.60;;;;;;;;;;5067035;28;20584;-67
2023/03/03 01:33:58;;;;;;;46.80;20.33;;;;;;;;;;5069258;28;20232;-67
2023/03/03 01:36:24;;;;;;;47.30;19.50;;;;;;;;;;5060495;28;20192;-67
2023/03/03 01:38:50;;;;;;;49.87;20.87;;;;;;;;;;5055223;28;20262;-67
2023/03/03 01:41:15;;;;;;;55.37;21.37;;;;;;;;;;5063231;28;20271;-67
2023/03/03 01:43:46;;;;;;;57.60;22.03;;;;;;;;;;5055058;28;20202;-67
2023/03/03 01:46:43;;;;;;;54.20;21.43;;;;;;;;;;5067341;28;20204;-67
2023/03/03 01:49:20;;;;;;;55.73;22.17;;;;;;;;;;5055112;28;20199;-67
2023/03/03 01:51:54;;;;;;;56.53;22.37;;;;;;;;;;5054179;28;20560;-67
2023/03/03 01:54:26;;;;;;;51.23;22.57;;;;;;;;;;5053205;28;20621;-67
2023/03/03 01:56:54;;;;;;;52.33;22.63;;;;;;;;;;5069208;28;20187;-67
2023/03/03 01:59:23;;;;;;;52.37;22.07;;;;;;;;;;5068728;28;20196;-67
2023/03/03 02:01:49;;;;;;;46.83;21.17;;;;;;;;;;5055466;28;20218;-67
2023/03/03 02:04:16;;;;;;;49.87;22.10;;;;;;;;;;5059354;28;20189;-68
2023/03/03 02:06:48;;;;;;;49.13;21.37;;;;;;;;;;5062095;28;20623;-67
2023/03/03 02:09:41;;;;;;;54.97;22.33;;;;;;;;;;5058980;28;20180;-67
2023/03/03 02:12:10;;;;;;;48.83;21.53;;;;;;;;;;5060793;28;20248;-67
2023/03/03 02:14:35;;;;;;;52.63;22.57;;;;;;;;;;5059117;28;20200;-67
2023/03/03 02:17:00;;;;;;;57.63;23.50;;;;;;;;;;5058274;28;20201;-67
2023/03/03 02:19:40;;;;;;;55.27;22.40;;;;;;;;;;5052295;28;20734;-67
2023/03/03 02:22:05;;;;;;;51.77;22.93;;;;;;;;;;5051491;28;20186;-67
2023/03/03 02:24:40;;;;;;;52.47;22.43;;;;;;;;;;5060709;28;20663;-67
2023/03/03 02:27:05;;;;;;;52.03;22.23;;;;;;;;;;5055161;28;20639;-67
2023/03/03 02:29:31;;;;;;;53.80;23.33;;;;;;;;;;5055894;28;20193;-67
2023/03/03 02:31:56;;;;;;;56.73;23.97;;;;;;;;;;5051527;28;20217;-67
2023/03/03 02:34:21;;;;;;;53.10;22.87;;;;;;;;;;5055222;28;20243;-67
2023/03/03 02:36:47;;;;;;;57.63;23.00;;;;;;;;;;5050690;28;20219;-67
2023/03/03 02:39:22;;;;;;;53.73;23.33;;;;;;;;;;5049568;28;20272;-67
2023/03/03 02:42:10;;;;;;;53.10;22.57;;;;;;;;;;5057425;28;20191;-67
2023/03/03 02:44:35;;;;;;;57.10;22.20;;;;;;;;;;5048309;28;20538;-67
2023/03/03 02:47:01;;;;;;;50.10;22.33;;;;;;;;;;5051218;28;20190;-67
2023/03/03 02:49:30;;;;;;;50.43;21.90;;;;;;;;;;5048230;28;20229;-67
2023/03/03 02:51:56;;;;;;;54.27;22.33;;;;;;;;;;5058977;28;20212;-67
2023/03/03 02:54:23;;;;;;;50.77;20.77;;;;;;;;;;5047237;28;20669;-67
2023/03/03 02:56:49;;;;;;;48.70;22.27;;;;;;;;;;5061518;28;20200;-67
2023/03/03 02:59:15;;;;;;;47.80;21.83;;;;;;;;;;5054922;28;20182;-67
2023/03/03 03:01:45;;;;;;;49.97;20.47;;;;;;;;;;5049206;28;20679;-67
2023/03/03 03:04:17;;;;;;;46.53;21.03;;;;;;;;;;5050404;28;20196;-67
2023/03/03 03:06:43;;;;;;;49.10;20.70;;;;;;;;;;5051452;28;20197;-67
2023/03/03 03:09:09;;;;;;;53.23;21.67;;;;;;;;;;5046906;28;20235;-67
2023/03/03 03:11:35;;;;;;;51.63;22.03;;;;;;;;;;5050129;28;20649;-67
2023/03/03 03:14:02;;;;;;;50.93;21.67;;;;;;;;;;5047401;28;20197;-67
2023/03/03 03:16:28;;;;;;;50.50;21.10;;;;;;;;;;5056164;28;20244;-67
2023/03/03 03:18:53;;;;;;;52.80;20.87;;;;;;;;;;5060520;28;20201;-68
2023/03/03 03:21:18;;;;;;;52.37;22.70;;;;;;;;;;5059386;28;20399;-67
2023/03/03 03:23:44;;;;;;;52.67;21.60;;;;;;;;;;5062048;28;20220;-67
2023/03/03 03:26:10;;;;;;;49.20;21.30;;;;;;;;;;5059110;28;20189;-67
2023/03/03 03:28:36;;;;;;;46.00;21.40;;;;;;;;;;5051387;28;20208;-67
2023/03/03 03:31:03;;;;;;;49.40;21.60;;;;;;;;;;5048810;28;20221;-67
2023/03/03 03:33:29;;;;;;;47.67;20.37;;;;;;;;;;5059800;28;20236;-67
2023/03/03 03:35:55;;;;;;;45.27;21.03;;;;;;;;;;5059036;28;20200;-67
2023/03/03 03:38:21;;;;;;;44.73;19.70;;;;;;;;;;5054064;28;20252;-67
2023/03/03 03:40:47;;;;;;;48.53;21.73;;;;;;;;;;5054304;28;20649;-68
2023/03/03 03:43:13;;;;;;;44.97;20.03;;;;;;;;;;5060878;28;20253;-66
2023/03/03 03:45:40;;;;;;;39.70;18.00;;;;;;;;;;5055782;28;20233;-66
2023/03/03 03:48:06;;;;;;;43.37;19.30;;;;;;;;;;5060879;28;20197;-66
2023/03/03 03:50:31;;;;;;;40.97;19.80;;;;;;;;;;5057014;28;20188;-66
2023/03/03 03:52:56;;;;;;;41.20;19.17;;;;;;;;;;5052552;28;20181;-66
2023/03/03 03:55:22;;;;;;;43.80;19.13;;;;;;;;;;5063134;28;20224;-67
2023/03/03 03:57:47;;;;;;;41.80;19.77;;;;;;;;;;5055787;28;20185;-66
2023/03/03 04:00:13;;;;;;;40.80;18.70;;;;;;;;;;5053361;28;20513;-67
2023/03/03 04:02:38;;;;;;;41.50;20.37;;;;;;;;;;5058537;28;20204;-68
2023/03/03 04:05:05;;;;;;;39.23;19.77;;;;;;;;;;5051665;28;20283;-68
2023/03/03 04:07:30;;;;;;;42.80;21.03;;;;;;;;;;5059312;28;20181;-68
2023/03/03 04:09:55;;;;;;;44.07;20.13;;;;;;;;;;5064541;28;20203;-68
2023/03/03 04:12:21;;;;;;;44.13;21.20;;;;;;;;;;5060432;28;20201;-68
2023/03/03 04:14:46;;;;;;;41.50;18.40;;;;;;;;;;5050502;28;20185;-68
2023/03/03 04:17:20;;;;;;;38.57;17.57;;;;;;;;;;5057376;28;20386;-67
2023/03/03 04:19:45;;;;;;;39.47;18.10;;;;;;;;;;5052627;28;20181;-68
2023/03/03 04:22:12;;;;;;;41.57;17.47;;;;;;;;;;5055471;28;20593;-68
2023/03/03 04:24:39;;;;;;;42.07;18.87;;;;;;;;;;5059357;28;20189;-68
2023/03/03 04:27:04;;;;;;;41.43;17.73;;;;;;;;;;5056472;28;20567;-69
2023/03/03 04:29:30;;;;;;;39.00;17.97;;;;;;;;;;5052914;28;20185;-68
2023/03/03 04:31:55;;;;;;;42.07;18.23;;;;;;;;;;5054523;28;20328;-68
2023/03/03 04:34:20;;;;;;;42.20;18.47;;;;;;;;;;5069059;28;20267;-68
2023/03/03 04:36:46;;;;;;;38.53;17.63;;;;;;;;;;5050377;28;20323;-68
2023/03/03 04:39:11;;;;;;;43.07;18.60;;;;;;;;;;5055619;28;20200;-68
2023/03/03 04:41:37;;;;;;;39.87;17.80;;;;;;;;;;5063543;28;20724;-66
2023/03/03 04:44:02;;;;;;;39.20;17.90;;;;;;;;;;5056276;28;20209;-65
2023/03/03 04:46:28;;;;;;;44.07;18.77;;;;;;;;;;5057083;28;20285;-68
2023/03/03 04:48:54;;;;;;;42.43;17.80;;;;;;;;;;5069750;28;20208;-68
2023/03/03 04:51:19;;;;;;;46.57;19.57;;;;;;;;;;5061667;28;20675;-68
2023/03/03 04:53:45;;;;;;;42.03;19.00;;;;;;;;;;5053620;28;20292;-69
2023/03/03 04:56:10;;;;;;;43.83;19.23;;;;;;;;;;5063473;28;20672;-68
2023/03/03 04:58:36;;;;;;;46.23;19.53;;;;;;;;;;5055743;28;20201;-68
2023/03/03 05:01:01;;;;;;;39.80;17.60;;;;;;;;;;5051079;28;20237;-66
2023/03/03 05:03:27;;;;;;;40.53;18.77;;;;;;;;;;5057362;28;20591;-66
2023/03/03 05:05:52;;;;;;;37.83;17.47;;;;;;;;;;5053485;28;20454;-67
2023/03/03 05:08:18;;;;;;;39.40;17.63;;;;;;;;;;5059326;28;20243;-67
2023/03/03 05:10:43;;;;;;;41.30;17.23;;;;;;;;;;5052908;28;20229;-67
2023/03/03 05:13:09;;;;;;;45.03;17.30;;;;;;;;;;5055097;28;20185;-66
2023/03/03 05:15:34;;;;;;;35.20;17.07;;;;;;;;;;5052523;28;20190;-67
2023/03/03 05:17:59;;;;;;;38.27;17.37;;;;;;;;;;5054244;28;20221;-67
2023/03/03 05:20:25;;;;;;;38.77;16.87;;;;;;;;;;5051308;28;20282;-67
2023/03/03 05:22:51;;;;;;;37.90;17.20;;;;;;;;;;5053056;28;20193;-66
2023/03/03 05:25:17;;;;;;;39.93;17.67;;;;;;;;;;5048874;28;20190;-66
2023/03/03 05:27:42;;;;;;;42.23;16.40;;;;;;;;;;5054872;28;20181;-67
2023/03/03 05:30:09;;;;;;;42.17;17.23;;;;;;;;;;5056170;28;20185;-66
2023/03/03 05:32:35;;;;;;;43.23;17.67;;;;;;;;;;5039828;28;20983;-67
2023/03/03 05:35:01;;;;;;;44.90;17.03;;;;;;;;;;5070503;28;20329;-66
2023/03/03 05:37:26;;;;;;;48.53;18.83;;;;;;;;;;5063792;28;20200;-67
2023/03/03 05:39:51;;;;;;;44.90;18.23;;;;;;;;;;5065413;28;20188;-67
2023/03/03 05:42:17;;;;;;;41.67;18.57;;;;;;;;;;5057233;28;20644;-66
2023/03/03 05:44:42;;;;;;;46.67;17.93;;;;;;;;;;5049216;28;20197;-67
2023/03/03 05:47:08;;;;;;;43.60;17.83;;;;;;;;;;5058145;28;20663;-67
2023/03/03 05:49:34;;;;;;;35.70;15.43;;;;;;;;;;5054343;28;20189;-68
2023/03/03 05:52:00;;;;;;;44.33;17.87;;;;;;;;;;5055143;28;20201;-66
2023/03/03 05:54:25;;;;;;;43.50;18.40;;;;;;;;;;5051381;28;20190;-68
2023/03/03 05:56:50;;;;;;;49.17;18.03;;;;;;;;;;5056178;28;20638;-68
2023/03/03 05:59:16;;;;;;;45.27;18.40;;;;;;;;;;5052043;28;20209;-68
2023/03/03 06:01:41;;;;;;;39.50;15.83;;;;;;;;;;5055045;28;20735;-68
2023/03/03 06:04:07;;;;;;;42.20;17.23;;;;;;;;;;5056265;28;20227;-68
2023/03/03 06:06:33;;;;;;;39.10;15.13;;;;;;;;;;5053633;28;20313;-66
2023/03/03 06:08:58;;;;;;;34.67;14.17;;;;;;;;;;5051181;28;20817;-66
2023/03/03 06:11:23;;;;;;;30.70;13.70;;;;;;;;;;5052346;28;20643;-67
2023/03/03 06:13:49;;;;;;;31.33;13.10;;;;;;;;;;5049940;28;20204;-67
2023/03/03 06:16:14;;;;;;;37.50;13.97;;;;;;;;;;5054875;28;20268;-67
2023/03/03 06:18:40;;;;;;;29.67;12.33;;;;;;;;;;5050846;28;20236;-67
2023/03/03 06:21:07;;;;;;;31.50;12.13;;;;;;;;;;5058988;28;20555;-67
2023/03/03 06:23:32;;;;;;;33.00;12.83;;;;;;;;;;5051099;28;20213;-66
2023/03/03 06:25:57;;;;;;;35.87;14.07;;;;;;;;;;5050551;28;20224;-67
2023/03/03 06:28:23;;;;;;;36.83;13.77;;;;;;;;;;5052333;28;20261;-67
2023/03/03 06:30:53;;;;;;;33.60;13.87;;;;;;;;;;5052468;28;20763;-67
2023/03/03 06:33:18;;;;;;;39.70;14.43;;;;;;;;;;5050087;28;20718;-67
2023/03/03 06:35:47;;;;;;;33.20;12.77;;;;;;;;;;5052328;28;20339;-67
2023/03/03 06:38:13;;;;;;;35.03;13.77;;;;;;;;;;5058371;28;20721;-67
2023/03/03 06:40:38;;;;;;;33.77;13.30;;;;;;;;;;5052714;28;20196;-66
2023/03/03 06:43:04;;;;;;;29.47;12.63;;;;;;;;;;5048328;28;20189;-66
2023/03/03 06:45:29;;;;;;;30.47;13.03;;;;;;;;;;5064737;28;20895;-67
2023/03/03 06:47:54;;;;;;;34.00;12.90;;;;;;;;;;5056838;28;20185;-67
2023/03/03 06:50:20;;;;;;;31.10;12.77;;;;;;;;;;5054685;28;20189;-67
2023/03/03 06:52:45;;;;;;;32.13;13.03;;;;;;;;;;5049467;28;20611;-66
2023/03/03 06:55:21;;;;;;;27.93;11.97;;;;;;;;;;5050445;28;20588;-66
2023/03/03 06:57:46;;;;;;;32.37;13.33;;;;;;;;;;5063267;28;20196;-67
2023/03/03 07:00:15;;;;;;;31.83;13.60;;;;;;;;;;5050948;28;20209;-67
2023/03/03 07:02:40;;;;;;;35.87;13.90;;;;;;;;;;5050447;28;20190;-67
2023/03/03 07:05:13;;;;;;;43.43;16.17;;;;;;;;;;5051962;28;20238;-67
2023/03/03 07:07:38;;;;;;;49.07;18.43;;;;;;;;;;5065985;28;20185;-67
2023/03/03 07:10:28;;;;;;;50.13;19.13;;;;;;;;;;5065834;28;20184;-67
2023/03/03 07:13:00;;;;;;;55.13;20.20;;;;;;;;;;5052387;28;20272;-68
2023/03/03 07:15:34;;;;;;;57.77;20.37;;;;;;;;;;5047579;28;20205;-68
2023/03/03 07:18:01;;;;;;;61.43;19.20;;;;;;;;;;5061370;28;20184;-67
2023/03/03 07:20:35;;;;;;;56.53;20.73;;;;;;;;;;5064410;28;20553;-67
2023/03/03 07:23:20;;;;;;;55.27;18.83;;;;;;;;;;5068231;28;20271;-67
2023/03/03 07:25:45;;;;;;;56.77;19.47;;;;;;;;;;5056917;28;20189;-67
2023/03/03 07:28:28;;;;;;;50.80;18.77;;;;;;;;;;5052880;28;20192;-66
2023/03/03 07:30:55;;;;;;;49.93;17.33;;;;;;;;;;5057590;28;20227;-68
2023/03/03 07:33:34;;;;;;;50.90;19.57;;;;;;;;;;5051817;28;20225;-67
2023/03/03 07:36:01;;;;;;;52.97;17.57;;;;;;;;;;5049926;28;20536;-67
2023/03/03 07:38:37;;;;;;;45.70;16.53;;;;;;;;;;5057659;28;20204;-67
2023/03/03 07:41:13;;;;;;;42.20;17.47;;;;;;;;;;5053414;28;20192;-67
2023/03/03 07:43:49;;;;;;;44.60;16.23;;;;;;;;;;5055391;28;20677;-67
2023/03/03 07:46:33;;;;;;;40.37;17.17;;;;;;;;;;5050562;28;20192;-67
2023/03/03 07:49:00;;;;;;;45.37;16.73;;;;;;;;;;5054793;28;20196;-67
2023/03/03 07:51:26;;;;;;;43.30;16.70;;;;;;;;;;5041244;28;20224;-67
2023/03/03 07:54:10;;;;;;;41.93;15.93;;;;;;;;;;5046929;28;20494;-67
2023/03/03 07:56:36;;;;;;;37.70;15.20;;;;;;;;;;5050011;28;21055;-67
2023/03/03 07:59:17;;;;;;;42.83;17.63;;;;;;;;;;5049905;28;20189;-66
2023/03/03 08:01:45;;;;;;;38.33;14.30;;;;;;;;;;5051311;28;20236;-67
2023/03/03 08:04:16;;;;;;;36.13;14.87;;;;;;;;;;5048385;28;20190;-67
2023/03/03 08:06:46;;;;;;;35.50;13.80;;;;;;;;;;5048844;28;20267;-67
2023/03/03 08:09:11;;;;;;;38.37;15.37;;;;;;;;;;5044996;28;20204;-67
2023/03/03 08:12:00;;;;;;;32.43;12.17;;;;;;;;;;5048490;28;20205;-66
2023/03/03 08:14:33;;;;;;;31.60;13.00;;;;;;;;;;5046794;28;20188;-68
2023/03/03 08:17:00;;;;;;;32.07;12.50;;;;;;;;;;5046346;28;20192;-66
2023/03/03 08:19:26;;;;;;;30.10;12.97;;;;;;;;;;5044897;28;20246;-67
2023/03/03 08:21:58;;;;;;;28.20;11.97;;;;;;;;;;5054368;28;20460;-67
2023/03/03 08:24:24;;;;;;;27.40;11.77;;;;;;;;;;5053463;28;20205;-67
2023/03/03 08:26:49;;;;;;;29.37;12.73;;;;;;;;;;5051443;28;20228;-66
2023/03/03 08:29:15;;;;;;;29.97;12.47;;;;;;;;;;5050751;28;20190;-67
2023/03/03 08:31:40;;;;;;;27.23;12.33;;;;;;;;;;5032555;28;20205;-67
2023/03/03 08:34:06;;;;;;;25.23;11.27;;;;;;;;;;5054844;28;20229;-67
2023/03/03 08:36:31;;;;;;;25.53;11.97;;;;;;;;;;5050292;28;20193;-67
2023/03/03 08:38:56;;;;;;;28.13;12.73;;;;;;;;;;5052521;28;20223;-67
2023/03/03 08:41:22;;;;;;;27.00;11.70;;;;;;;;;;5056158;28;20239;-66
2023/03/03 08:43:47;;;;;;;22.17;10.90;;;;;;;;;;5060306;28;20206;-66
2023/03/03 08:46:13;;;;;;;26.73;11.23;;;;;;;;;;5055359;28;20189;-67
2023/03/03 08:48:38;;;;;;;22.60;10.30;;;;;;;;;;5053278;28;20281;-67
2023/03/03 08:51:04;;;;;;;18.60;9.73;;;;;;;;;;5053803;28;20236;-66
2023/03/03 08:53:32;;;;;;;19.60;8.87;;;;;;;;;;5050767;28;20268;-67
2023/03/03 08:55:58;;;;;;;20.37;10.50;;;;;;;;;;5052010;28;20187;-67
2023/03/03 08:58:23;;;;;;;17.13;8.70;;;;;;;;;;5052625;28;20546;-66
2023/03/03 09:00:48;;;;;;;19.00;9.23;;;;;;;;;;5050885;28;20583;-66
2023/03/03 09:03:14;;;;;;;17.73;8.50;;;;;;;;;;5057129;28;20186;-67
2023/03/03 09:05:40;;;;;;;13.97;7.77;;;;;;;;;;5051913;28;20189;-66
2023/03/03 09:08:06;;;;;;;15.00;7.80;;;;;;;;;;5062239;28;20196;-66
2023/03/03 09:10:34;;;;;;;16.40;8.10;;;;;;;;;;5054427;28;20277;-67
2023/03/03 09:13:06;;;;;;;15.93;7.67;;;;;;;;;;5051982;28;20188;-67
2023/03/03 09:15:35;;;;;;;13.30;7.20;;;;;;;;;;5057068;28;20213;-67
2023/03/03 09:18:30;;;;;;;14.50;6.83;;;;;;;;;;5056842;28;20216;-67
2023/03/03 09:20:56;;;;;;;17.17;6.47;;;;;;;;;;5052251;28;20189;-68
2023/03/03 09:23:32;;;;;;;14.40;6.73;;;;;;;;;;5053556;28;20310;-68
2023/03/03 09:26:29;;;;;;;12.83;6.60;;;;;;;;;;5052186;28;20279;-67
2023/03/03 09:29:00;;;;;;;14.00;6.10;;;;;;;;;;5052640;28;20181;-67
2023/03/03 09:31:43;;;;;;;11.83;5.83;;;;;;;;;;5050274;28;20212;-68
2023/03/03 09:34:37;;;;;;;13.20;6.30;;;;;;;;;;5049971;28;20279;-67
2023/03/03 09:37:23;;;;;;;11.73;6.73;;;;;;;;;;5050709;28;20596;-67
2023/03/03 09:39:54;;;;;;;10.73;5.97;;;;;;;;;;5059674;28;20489;-67
2023/03/03 09:42:50;;;;;;;12.73;6.07;;;;;;;;;;5057062;28;20185;-67
2023/03/03 09:45:26;;;;;;;11.37;6.10;;;;;;;;;;5054833;28;20188;-67
2023/03/03 09:48:16;;;;;;;14.00;6.43;;;;;;;;;;5055623;28;20300;-68
2023/03/03 09:50:55;;;;;;;9.57;5.80;;;;;;;;;;5056274;28;20190;-69
2023/03/03 09:53:47;;;;;;;10.50;6.10;;;;;;;;;;5061897;28;20274;-68
2023/03/03 09:56:16;;;;;;;12.17;6.00;;;;;;;;;;5058547;28;20250;-68
2023/03/03 09:59:22;;;;;;;10.73;7.03;;;;;;;;;;5054635;28;20216;-69
2023/03/03 10:02:00;;;;;;;14.23;6.43;;;;;;;;;;5054933;28;20422;-68
2023/03/03 10:04:59;;;;;;;14.97;6.30;;;;;;;;;;5052064;28;20192;-69
2023/03/03 10:07:37;;;;;;;12.27;5.93;;;;;;;;;;5050134;28;20601;-68
2023/03/03 10:10:19;;;;;;;13.70;6.27;;;;;;;;;;5052912;28;20193;-67
2023/03/03 10:12:54;;;;;;;11.40;6.03;;;;;;;;;;5055290;28;20298;-66
2023/03/03 10:15:32;;;;;;;8.87;5.83;;;;;;;;;;5054829;28;20188;-67
2023/03/03 10:18:28;;;;;;;12.57;7.43;;;;;;;;;;5059219;28;20220;-67
2023/03/03 10:21:15;;;;;;;12.50;6.47;;;;;;;;;;5060965;28;20652;-67
2023/03/03 10:24:06;;;;;;;12.13;6.80;;;;;;;;;;5053572;28;20312;-66
2023/03/03 10:26:50;;;;;;;13.60;6.63;;;;;;;;;;5061477;28;20197;-67
2023/03/03 10:29:22;;;;;;;12.33;6.10;;;;;;;;;;5054070;28;20185;-67
2023/03/03 10:32:14;;;;;;;9.33;5.60;;;;;;;;;;5049899;28;20279;-67
2023/03/03 10:35:25;;;;;;;10.63;5.20;;;;;;;;;;5052642;28;20325;-67
2023/03/03 10:38:18;;;;;;;9.90;5.07;;;;;;;;;;5052877;28;20201;-67
2023/03/03 10:40:55;;;;;;;10.30;5.30;;;;;;;;;;5050544;28;20249;-67
2023/03/03 10:43:30;;;;;;;8.77;5.40;;;;;;;;;;5050672;28;20188;-67
2023/03/03 10:46:20;;;;;;;7.30;4.63;;;;;;;;;;5046875;28;20192;-67
2023/03/03 10:48:59;;;;;;;9.13;5.90;;;;;;;;;;5060056;28;20201;-67
2023/03/03 10:52:13;;;;;;;10.43;5.03;;;;;;;;;;5056818;28;20213;-68
2023/03/03 10:55:03;;;;;;;9.27;5.37;;;;;;;;;;5048815;28;20231;-67
2023/03/03 10:57:38;;;;;;;10.03;4.57;;;;;;;;;;5053362;28;20185;-68
2023/03/03 11:00:06;;;;;;;9.57;4.57;;;;;;;;;;5054316;28;20239;-68
2023/03/03 11:03:10;;;;;;;9.63;4.93;;;;;;;;;;5043740;28;20204;-67
2023/03/03 11:05:51;;;;;;;9.63;4.63;;;;;;;;;;5058404;28;20224;-67
2023/03/03 11:08:25;;;;;;;9.35;3.95;;;;;;;;;;5050660;28;20188;-67
2023/03/03 11:11:13;;;;;;;7.63;3.90;;;;;;;;;;5065743;28;20564;-67
2023/03/03 11:13:57;;;;;;;9.27;4.20;;;;;;;;;;5062718;28;20515;-68
2023/03/03 11:16:54;;;;;;;8.45;4.25;;;;;;;;;;5045336;28;20273;-67
2023/03/03 11:19:47;;;;;;;7.82;3.97;;;;;;;;;;5046024;28;20204;-68
2023/03/03 11:22:28;;;;;;;8.05;4.22;;;;;;;;;;5046853;28;20196;-67
2023/03/03 11:25:19;;;;;;;5.55;3.85;;;;;;;;;;5045042;28;20296;-67
2023/03/03 11:28:06;;;;;;;5.80;3.70;;;;;;;;;;5055944;28;20223;-67
2023/03/03 11:31:12;;;;;;;8.27;4.03;;;;;;;;;;5050255;28;20185;-67
2023/03/03 11:34:09;;;;;;;6.43;3.92;;;;;;;;;;5064818;28;20235;-67
2023/03/03 11:36:41;;;;;;;7.53;3.63;;;;;;;;;;5054023;28;20188;-67
2023/03/03 11:39:27;;;;;;;7.75;3.70;;;;;;;;;;5055412;28;20742;-67
2023/03/03 11:41:53;;;;;;;7.33;4.00;;;;;;;;;;5050035;28;20196;-67
2023/03/03 11:44:29;;;;;;;5.57;3.80;;;;;;;;;;5053158;28;20189;-68
2023/03/03 11:47:22;;;;;;;8.07;4.10;;;;;;;;;;5062465;28;20195;-67
2023/03/03 11:50:00;;;;;;;11.88;4.15;;;;;;;;;;5048076;28;20386;-67
2023/03/03 11:52:49;;;;;;;6.63;3.72;;;;;;;;;;5062343;28;20211;-67
2023/03/03 11:55:31;;;;;;;7.10;3.25;;;;;;;;;;5056091;28;20217;-67
2023/03/03 11:58:21;;;;;;;9.48;3.97;;;;;;;;;;5056621;28;20641;-67
2023/03/03 12:00:53;;;;;;;7.85;3.70;;;;;;;;;;5062122;28;20217;-67
2023/03/03 12:03:44;;;;;;;10.50;3.08;;;;;;;;;;5064253;28;20652;-67
2023/03/03 12:06:18;;;;;;;6.93;3.72;;;;;;;;;;5071533;28;20331;-68
2023/03/03 12:09:03;;;;;;;6.35;3.65;;;;;;;;;;5071415;28;20227;-67
2023/03/03 12:11:47;;;;;;;5.03;3.28;;;;;;;;;;5054588;28;20240;-67
2023/03/03 12:14:37;;;;;;;5.57;3.35;;;;;;;;;;5059324;28;20193;-68
2023/03/03 12:17:24;;;;;;;7.07;3.03;;;;;;;;;;5052598;28;20272;-67
2023/03/03 12:20:20;;;;;;;4.45;3.08;;;;;;;;;;5067182;28;20260;-68
2023/03/03 12:23:23;;;;;;;6.68;3.28;;;;;;;;;;5060684;28;20204;-67
2023/03/03 12:26:05;;;;;;;4.18;2.72;;;;;;;;;;5051759;28;20201;-67
2023/03/03 12:28:39;;;;;;;9.52;3.45;;;;;;;;;;5067037;28;20196;-67
2023/03/03 12:31:50;;;;;;;6.30;3.03;;;;;;;;;;5070440;28;20334;-67
2023/03/03 12:34:25;;;;;;;8.57;3.97;;;;;;;;;;5057943;28;20239;-67
2023/03/03 12:37:04;;;;;;;5.47;3.35;;;;;;;;;;5056952;28;20240;-67
2023/03/03 12:40:12;;;;;;;7.25;3.00;;;;;;;;;;5055154;28;20642;-67
2023/03/03 12:42:53;;;;;;;7.35;2.80;;;;;;;;;;5057939;28;20241;-67
2023/03/03 12:45:37;;;;;;;4.40;2.50;;;;;;;;;;5057332;28;20189;-67
2023/03/03 12:48:20;;;;;;;5.35;3.30;;;;;;;;;;5067598;28;20203;-66
2023/03/03 12:51:13;;;;;;;5.00;2.60;;;;;;;;;;5071620;28;20299;-67
2023/03/03 12:53:47;;;;;;;5.97;2.95;;;;;;;;;;5060120;28;20221;-67
2023/03/03 12:56:24;;;;;;;6.60;3.30;;;;;;;;;;5058216;28;20636;-67
2023/03/03 12:58:59;;;;;;;7.82;2.88;;;;;;;;;;5056529;28;20560;-67
2023/03/03 13:01:40;;;;;;;5.32;3.05;;;;;;;;;;5056670;28;20200;-67
2023/03/03 13:04:30;;;;;;;7.00;3.38;;;;;;;;;;5069586;28;20199;-67
2023/03/03 13:07:09;;;;;;;7.05;3.33;;;;;;;;;;5078086;28;20660;-67
2023/03/03 13:09:53;;;;;;;8.02;2.97;;;;;;;;;;5061206;28;20666;-67
2023/03/03 13:12:30;;;;;;;5.32;3.47;;;;;;;;;;5059367;28;20292;-68
2023/03/03 13:15:00;;;;;;;5.28;2.80;;;;;;;;;;5065574;28;20188;-67
2023/03/03 13:17:37;;;;;;;4.75;2.47;;;;;;;;;;5064579;28;20192;-68
2023/03/03 13:20:23;;;;;;;8.60;2.20;;;;;;;;;;5051425;28;20193;-67
2023/03/03 13:22:57;;;;;;;7.88;1.95;;;;;;;;;;5049761;28;20182;-67
2023/03/03 13:25:47;;;;;;;4.18;1.70;;;;;;;;;;5062566;28;20253;-67
2023/03/03 13:28:22;;;;;;;3.47;1.80;;;;;;;;;;5063166;28;20193;-67
2023/03/03 13:30:53;;;;;;;5.18;1.90;;;;;;;;;;5066926;28;20616;-66
2023/03/03 13:33:26;;;;;;;4.78;2.15;;;;;;;;;;5064674;28;20224;-66
2023/03/03 13:35:59;;;;;;;5.47;2.25;;;;;;;;;;5054117;28;20188;-66
2023/03/03 13:38:29;;;;;;;6.72;2.47;;;;;;;;;;5057420;28;20205;-66
2023/03/03 13:41:22;;;;;;;5.20;2.25;;;;;;;;;;5050583;28;20185;-65
2023/03/03 13:44:12;;;;;;;8.20;2.30;;;;;;;;;;5053651;28;20690;-67
2023/03/03 13:46:44;;;;;;;4.82;2.50;;;;;;;;;;5067163;28;20258;-66
2023/03/03 13:49:44;;;;;;;5.28;3.10;;;;;;;;;;5053602;28;20258;-66
2023/03/03 13:52:20;;;;;;;6.97;2.45;;;;;;;;;;5064005;28;20205;-66
2023/03/03 13:54:56;;;;;;;4.93;2.35;;;;;;;;;;5058632;28;20196;-66
2023/03/03 13:57:42;;;;;;;5.03;2.40;;;;;;;;;;5048458;28;20185;-66
2023/03/03 14:00:33;;;;;;;6.35;2.80;;;;;;;;;;5052481;28;20309;-66
2023/03/03 14:03:17;;;;;;;9.18;3.20;;;;;;;;;;5052407;28;20181;-66
2023/03/03 14:05:49;;;;;;;3.70;2.20;;;;;;;;;;5058803;28;20242;-66
2023/03/03 14:08:24;;;;;;;7.07;2.42;;;;;;;;;;5077292;28;20662;-66
2023/03/03 14:11:01;;;;;;;7.45;2.22;;;;;;;;;;5052466;28;20189;-67
2023/03/03 14:13:34;;;;;;;8.48;2.33;;;;;;;;;;5029474;28;20185;-66
2023/03/03 14:16:47;;;;;;;9.10;2.78;;;;;;;;;;5050876;28;20200;-66
2023/03/03 14:19:27;;;;;;;8.25;2.50;;;;;;;;;;5052192;28;20205;-66
2023/03/03 14:21:55;;;;;;;7.13;2.83;;;;;;;;;;5053389;28;20216;-66
2023/03/03 14:24:24;;;;;;;6.28;2.15;;;;;;;;;;5053026;28;20193;-66
2023/03/03 14:26:55;;;;;;;2.92;1.55;;;;;;;;;;5053352;28;20208;-66
2023/03/03 14:29:26;;;;;;;3.35;1.50;;;;;;;;;;5056459;28;20742;-66
2023/03/03 14:31:53;;;;;;;2.35;1.33;;;;;;;;;;5050716;28;20205;-66
2023/03/03 14:34:22;;;;;;;2.58;1.15;;;;;;;;;;5057134;28;20229;-66
2023/03/03 14:36:49;;;;;;;2.92;1.08;;;;;;;;;;5052450;28;20412;-66
2023/03/03 14:39:35;;;;;;;3.60;0.88;;;;;;;;;;5057186;28;20224;-66
2023/03/03 14:42:04;;;;;;;2.88;1.23;;;;;;;;;;5051582;28;20220;-66
2023/03/03 14:44:37;;;;;;;3.28;1.58;;;;;;;;;;5053865;28;20316;-65
2023/03/03 14:47:10;;;;;;;4.28;1.10;;;;;;;;;;5050661;28;20475;-66
2023/03/03 14:49:38;;;;;;;3.90;1.10;;;;;;;;;;5046253;28;20208;-66
2023/03/03 14:52:15;;;;;;;3.45;1.67;;;;;;;;;;5049331;28;20242;-66
2023/03/03 14:54:45;;;;;;;3.03;1.40;;;;;;;;;;5047688;28;20208;-66
2023/03/03 14:57:44;;;;;;;3.28;1.38;;;;;;;;;;5050353;28;20192;-66
2023/03/03 15:00:13;;;;;;;2.90;1.50;;;;;;;;;;5048276;28;20693;-66
2023/03/03 15:02:51;;;;;;;3.83;1.70;;;;;;;;;;5051468;28;20188;-65